Time;durP1;ratioP1;P1;durP2;ratioP2;P2;SDS_P1;SDS_P2;PMS_P1;PMS_P2;Temp;Humidity;BMP_temperature;BMP_pressure;BME280_temperature;BME280_humidity;BME280_pressure;Samples;Min_cycle;Max_cycle;Signal;HPM_P1;HPM_P2
2022/05/11 00:00:19;;;;;;;9.02;4.57;;;13.80;99.90;;;;;;4232004;28;20051;-84
2022/05/11 00:02:21;;;;;;;14.15;5.35;;;13.80;99.90;;;;;;4213328;28;20048;-84
2022/05/11 00:04:22;;;;;;;12.27;4.90;;;13.80;99.90;;;;;;4232925;28;20051;-85
2022/05/11 00:06:25;;;;;;;14.43;4.82;;;13.80;99.90;;;;;;4213706;28;20082;-85
2022/05/11 00:08:27;;;;;;;12.73;5.35;;;14.10;99.90;;;;;;4230610;28;20080;-84
2022/05/11 00:10:29;;;;;;;11.15;5.05;;;13.80;99.90;;;;;;4218661;28;20114;-85
2022/05/11 00:12:29;;;;;;;9.18;4.68;;;13.80;99.90;;;;;;4247880;27;20155;-85
2022/05/11 00:14:30;;;;;;;15.18;5.10;;;13.80;99.90;;;;;;4214054;28;20377;-85
2022/05/11 00:16:33;;;;;;;17.90;5.47;;;13.80;99.90;;;;;;4230785;28;20047;-85
2022/05/11 00:18:34;;;;;;;13.88;5.07;;;13.80;99.90;;;;;;4249225;27;20050;-84
2022/05/11 00:20:35;;;;;;;13.10;5.45;;;13.80;99.90;;;;;;4213154;28;20427;-85
2022/05/11 00:22:36;;;;;;;14.45;5.45;;;14.00;99.90;;;;;;4230768;28;20048;-85
2022/05/11 00:24:37;;;;;;;16.38;5.90;;;13.80;99.90;;;;;;4248881;27;20126;-86
2022/05/11 00:26:38;;;;;;;13.38;6.18;;;13.80;99.90;;;;;;4249134;27;20035;-85
2022/05/11 00:28:38;;;;;;;11.32;5.13;;;13.70;99.90;;;;;;4249562;27;20050;-84
2022/05/11 00:30:39;;;;;;;20.02;5.30;;;13.20;99.90;;;;;;4248043;27;20043;-85
2022/05/11 00:32:41;;;;;;;11.48;5.60;;;13.70;99.90;;;;;;4248923;27;20478;-84
2022/05/11 00:34:42;;;;;;;11.65;5.47;;;13.70;99.90;;;;;;4248032;27;20078;-85
2022/05/11 00:36:42;;;;;;;11.05;5.63;;;13.70;99.90;;;;;;4246615;27;20043;-85
2022/05/11 00:38:44;;;;;;;17.85;5.25;;;13.70;99.90;;;;;;4230005;28;20082;-85
2022/05/11 00:40:53;;;;;;;12.82;5.25;;;13.70;99.90;;;;;;4248239;27;20055;-85
2022/05/11 00:42:54;;;;;;;14.48;6.78;;;13.90;99.90;;;;;;4248916;27;20380;-85
2022/05/11 00:44:55;;;;;;;10.43;5.18;;;13.80;99.90;;;;;;4247860;27;20134;-85
2022/05/11 00:47:11;;;;;;;15.80;4.97;;;13.70;99.90;;;;;;4230293;28;20576;-84
2022/05/11 00:49:35;;;;;;;18.85;5.55;;;13.70;99.90;;;;;;4248783;27;20207;-85
2022/05/11 00:51:44;;;;;;;11.05;5.25;;;13.80;99.90;;;;;;4248972;27;20043;-85
2022/05/11 00:53:50;;;;;;;12.88;6.05;;;13.80;99.90;;;;;;4248528;27;20043;-84
2022/05/11 00:55:56;;;;;;;10.35;4.78;;;13.70;99.90;;;;;;4247572;27;20443;-85
2022/05/11 00:58:11;;;;;;;16.38;5.68;;;13.70;99.90;;;;;;4247982;27;20036;-85
2022/05/11 01:00:12;;;;;;;13.52;4.82;;;13.90;99.90;;;;;;4230072;28;20098;-85
2022/05/11 01:02:13;;;;;;;17.98;6.30;;;13.70;99.90;;;;;;4230665;28;20087;-85
2022/05/11 01:04:19;;;;;;;12.93;4.90;;;13.80;99.90;;;;;;4248325;27;20407;-86
2022/05/11 01:06:21;;;;;;;15.52;5.15;;;13.70;99.90;;;;;;4247414;27;20051;-85
2022/05/11 01:08:23;;;;;;;10.30;4.97;;;13.70;99.90;;;;;;4246850;27;20125;-84
2022/05/11 01:10:29;;;;;;;14.30;5.43;;;13.70;99.90;;;;;;4247656;28;20035;-85
2022/05/11 01:12:39;;;;;;;9.13;4.47;;;13.80;99.90;;;;;;4246906;28;20085;-85
2022/05/11 01:14:42;;;;;;;8.52;4.20;;;13.80;99.90;;;;;;4248156;28;20118;-86
2022/05/11 01:16:42;;;;;;;15.00;5.70;;;13.70;99.90;;;;;;4248314;28;20506;-85
2022/05/11 01:18:44;;;;;;;9.95;5.10;;;13.70;99.90;;;;;;4247944;28;20068;-84
2022/05/11 01:20:45;;;;;;;10.88;4.80;;;13.70;99.90;;;;;;4248427;28;20043;-84
2022/05/11 01:23:25;;;;;;;17.20;5.43;;;13.70;99.90;;;;;;4228458;28;20040;-85
2022/05/11 01:25:26;;;;;;;10.13;4.25;;;13.80;99.90;;;;;;4248252;28;20047;-86
2022/05/11 01:27:32;;;;;;;9.90;4.32;;;13.80;99.90;;;;;;4248784;28;20502;-84
2022/05/11 01:29:33;;;;;;;9.70;4.65;;;13.80;99.90;;;;;;4248807;28;20058;-84
2022/05/11 01:31:33;;;;;;;11.98;5.07;;;13.80;99.90;;;;;;4248335;28;20121;-84
2022/05/11 01:33:37;;;;;;;12.70;4.80;;;13.80;99.90;;;;;;4230253;28;20082;-85
2022/05/11 01:36:09;;;;;;;13.05;5.70;;;13.80;99.90;;;;;;4231875;28;20040;-85
2022/05/11 01:38:18;;;;;;;9.35;4.13;;;13.80;99.90;;;;;;4233812;28;20056;-85
2022/05/11 01:40:18;;;;;;;13.63;4.75;;;13.70;99.90;;;;;;4251587;27;20055;-86
2022/05/11 01:42:20;;;;;;;10.25;5.00;;;13.70;99.90;;;;;;4252497;27;20127;-86
2022/05/11 01:44:24;;;;;;;9.00;5.00;;;13.80;99.90;;;;;;4233592;28;20093;-85
2022/05/11 01:46:25;;;;;;;10.10;4.95;;;13.80;99.90;;;;;;4252127;27;20054;-86
2022/05/11 01:48:27;;;;;;;8.57;4.30;;;13.70;99.90;;;;;;4234109;28;20546;-86
2022/05/11 01:50:28;;;;;;;7.90;4.80;;;13.70;99.90;;;;;;4234389;28;20044;-85
2022/05/11 01:52:28;;;;;;;8.20;4.53;;;13.70;99.90;;;;;;4253213;27;20517;-85
2022/05/11 01:54:29;;;;;;;9.40;4.60;;;13.70;99.90;;;;;;4236300;28;20040;-86
2022/05/11 01:56:30;;;;;;;12.65;5.30;;;13.70;99.90;;;;;;4225010;28;20052;-86
2022/05/11 01:58:31;;;;;;;10.73;5.13;;;13.70;99.90;;;;;;4253778;27;20100;-85
2022/05/11 02:00:32;;;;;;;10.27;4.45;;;13.60;99.90;;;;;;4236422;28;20050;-84
2022/05/11 02:02:32;;;;;;;11.90;4.60;;;13.70;99.90;;;;;;4253836;27;20047;-85
2022/05/11 02:09:25;;;;;;;10.23;4.25;;;13.70;99.90;;;;;;4201782;28;19991;-86
2022/05/11 02:11:27;;;;;;;11.63;4.72;;;13.60;99.90;;;;;;4218815;28;20048;-85
2022/05/11 02:13:29;;;;;;;13.95;5.00;;;13.60;99.90;;;;;;4221976;28;20090;-84
2022/05/11 02:15:29;;;;;;;8.27;4.20;;;13.60;99.90;;;;;;4258368;27;20078;-85
2022/05/11 02:17:30;;;;;;;7.75;4.13;;;13.60;99.90;;;;;;4256693;27;20028;-85
2022/05/11 02:19:31;;;;;;;12.18;4.63;;;13.60;99.90;;;;;;4222617;28;20069;-85
2022/05/11 02:21:32;;;;;;;8.77;4.60;;;13.60;99.90;;;;;;4239957;28;20063;-85
2022/05/11 02:23:33;;;;;;;8.75;5.15;;;13.60;99.90;;;;;;4223916;28;20563;-85
2022/05/11 02:25:34;;;;;;;9.18;4.43;;;13.60;99.90;;;;;;4259451;27;20043;-85
2022/05/11 02:27:35;;;;;;;10.07;4.35;;;13.60;99.90;;;;;;4239599;28;20039;-85
2022/05/11 02:29:37;;;;;;;9.20;4.72;;;13.60;99.90;;;;;;4238116;28;20572;-85
2022/05/11 02:31:39;;;;;;;10.02;4.53;;;13.60;99.90;;;;;;4252604;27;20558;-85
2022/05/11 02:33:40;;;;;;;12.70;5.18;;;13.60;99.90;;;;;;4250084;27;20051;-84
2022/05/11 02:35:42;;;;;;;11.05;4.88;;;13.60;99.90;;;;;;4232876;28;20565;-85
2022/05/11 02:38:05;;;;;;;12.15;4.65;;;13.60;99.90;;;;;;4216555;28;20048;-84
2022/05/11 02:40:07;;;;;;;8.55;4.60;;;13.90;99.90;;;;;;4234757;28;20047;-85
2022/05/11 02:42:07;;;;;;;7.82;4.53;;;13.50;99.90;;;;;;4255611;27;20491;-85
2022/05/11 02:44:09;;;;;;;13.57;5.20;;;13.50;99.90;;;;;;4251833;27;20039;-84
2022/05/11 02:46:11;;;;;;;9.63;4.90;;;13.60;99.90;;;;;;4215663;28;20154;-84
2022/05/11 02:48:14;;;;;;;11.00;4.68;;;13.50;99.90;;;;;;4236986;27;20043;-85
2022/05/11 02:50:22;;;;;;;10.02;4.88;;;13.70;99.90;;;;;;4218873;28;20083;-85
2022/05/11 02:52:26;;;;;;;9.20;4.47;;;13.60;99.90;;;;;;4239969;28;20044;-84
2022/05/11 02:54:26;;;;;;;8.45;4.32;;;12.90;99.90;;;;;;4220858;28;20052;-84
2022/05/11 02:56:27;;;;;;;11.10;5.13;;;13.60;99.90;;;;;;4221970;28;20153;-84
2022/05/11 02:58:32;;;;;;;10.43;4.35;;;13.60;99.90;;;;;;4241426;28;20408;-86
2022/05/11 03:00:36;;;;;;;7.72;4.28;;;13.60;99.90;;;;;;4221080;28;20048;-86
2022/05/11 03:02:38;;;;;;;8.52;4.57;;;13.60;99.90;;;;;;4224092;28;20051;-85
2022/05/11 03:04:38;;;;;;;8.85;4.40;;;13.60;99.90;;;;;;4241362;28;20495;-85
2022/05/11 03:06:39;;;;;;;10.65;4.35;;;13.50;99.90;;;;;;4224320;28;20073;-84
2022/05/11 03:08:42;;;;;;;9.30;4.88;;;13.60;99.90;;;;;;4223150;28;20077;-85
2022/05/11 03:10:44;;;;;;;10.85;4.55;;;13.60;99.90;;;;;;4215657;28;20052;-85
2022/05/11 03:12:46;;;;;;;12.75;5.28;;;13.60;99.90;;;;;;4217465;28;20114;-85
2022/05/11 03:14:46;;;;;;;12.13;5.30;;;13.50;99.90;;;;;;4232985;28;20469;-85
2022/05/11 03:16:47;;;;;;;7.60;4.40;;;13.50;99.90;;;;;;4215435;28;20048;-84
2022/05/11 03:18:48;;;;;;;11.65;5.30;;;13.50;99.90;;;;;;4234348;28;20040;-85
2022/05/11 03:20:49;;;;;;;15.40;4.75;;;13.50;99.90;;;;;;4236021;28;20095;-84
2022/05/11 03:22:52;;;;;;;8.68;4.20;;;13.50;99.90;;;;;;4232172;28;20126;-84
2022/05/11 03:24:54;;;;;;;7.45;4.18;;;13.50;99.90;;;;;;4232891;28;20035;-84
2022/05/11 03:26:55;;;;;;;15.25;4.80;;;13.50;99.90;;;;;;4215265;28;20462;-85
2022/05/11 03:28:56;;;;;;;7.32;4.10;;;13.50;99.90;;;;;;4198490;28;20040;-85
2022/05/11 03:30:57;;;;;;;8.95;4.18;;;13.50;99.90;;;;;;4232854;28;20059;-85
2022/05/11 03:35:17;;;;;;;9.02;3.83;;;13.50;99.90;;;;;;4214517;28;20044;-85
2022/05/11 03:37:20;;;;;;;12.85;4.43;;;13.50;99.90;;;;;;4231867;28;20055;-85
2022/05/11 03:39:21;;;;;;;8.68;3.70;;;13.50;99.90;;;;;;4232983;28;20115;-85
2022/05/11 03:41:22;;;;;;;15.55;4.65;;;13.50;99.90;;;;;;4215337;28;20055;-84
2022/05/11 03:43:23;;;;;;;8.30;3.70;;;12.90;99.90;;;;;;4231430;28;20079;-85
2022/05/11 03:45:26;;;;;;;6.70;3.78;;;13.50;99.90;;;;;;4215078;28;20539;-85
2022/05/11 03:47:26;;;;;;;7.43;3.47;;;13.50;99.90;;;;;;4232495;28;20040;-84
2022/05/11 03:49:27;;;;;;;12.80;3.80;;;13.50;99.90;;;;;;4214201;28;20124;-85
2022/05/11 03:51:28;;;;;;;7.85;4.07;;;13.50;99.90;;;;;;4232262;28;20089;-85
2022/05/11 03:53:30;;;;;;;7.28;3.38;;;13.40;99.90;;;;;;4232697;28;20035;-85
2022/05/11 03:55:31;;;;;;;7.57;3.80;;;13.40;99.90;;;;;;4214438;28;20044;-85
2022/05/11 03:57:33;;;;;;;12.38;4.07;;;13.40;99.90;;;;;;4214215;28;20108;-86
2022/05/11 03:59:34;;;;;;;7.43;3.95;;;13.40;99.90;;;;;;4240795;27;20062;-85
2022/05/11 04:01:38;;;;;;;8.43;3.47;;;13.20;99.90;;;;;;4249945;27;20035;-85
2022/05/11 04:03:39;;;;;;;5.45;3.45;;;13.50;99.90;;;;;;4249565;27;20121;-84
2022/05/11 04:05:39;;;;;;;8.32;3.47;;;13.50;99.90;;;;;;4249921;27;20035;-85
2022/05/11 04:07:42;;;;;;;11.70;3.60;;;13.50;99.90;;;;;;4249902;27;20122;-85
2022/05/11 04:09:42;;;;;;;10.55;3.75;;;13.50;99.90;;;;;;4250244;27;20035;-85
2022/05/11 04:11:44;;;;;;;8.15;3.05;;;13.50;99.90;;;;;;4231252;28;20050;-85
2022/05/11 04:13:45;;;;;;;9.90;3.60;;;13.50;99.90;;;;;;4231592;28;20123;-85
2022/05/11 04:15:50;;;;;;;6.53;3.20;;;13.50;99.90;;;;;;4248632;27;20513;-85
2022/05/11 04:17:50;;;;;;;10.95;3.97;;;13.50;99.90;;;;;;4250468;27;20079;-85
2022/05/11 04:19:51;;;;;;;13.07;3.63;;;13.50;99.90;;;;;;4231326;28;20066;-85
2022/05/11 04:21:52;;;;;;;10.40;3.97;;;13.50;99.90;;;;;;4249124;27;20043;-85
2022/05/11 04:23:53;;;;;;;7.75;3.70;;;13.50;99.90;;;;;;4230713;28;20083;-85
2022/05/11 04:25:57;;;;;;;10.63;3.10;;;13.50;99.90;;;;;;4249822;27;20071;-85
2022/05/11 04:27:58;;;;;;;6.30;3.67;;;13.50;99.90;;;;;;4249313;27;20095;-85
2022/05/11 04:29:59;;;;;;;10.40;3.75;;;13.50;99.90;;;;;;4249810;27;20475;-84
2022/05/11 04:32:01;;;;;;;10.15;3.58;;;13.50;99.90;;;;;;4249203;27;20043;-85
2022/05/11 04:34:02;;;;;;;10.27;3.60;;;13.50;99.90;;;;;;4230723;28;20051;-85
2022/05/11 04:36:04;;;;;;;7.05;3.53;;;13.50;99.90;;;;;;4249413;27;20388;-85
2022/05/11 04:38:07;;;;;;;9.52;4.15;;;13.50;99.90;;;;;;4249067;27;20406;-85
2022/05/11 04:40:10;;;;;;;8.93;3.50;;;13.50;99.90;;;;;;4249182;27;20122;-84
2022/05/11 04:42:11;;;;;;;8.07;3.50;;;13.50;99.90;;;;;;4231172;28;20055;-84
2022/05/11 04:44:12;;;;;;;8.80;3.70;;;13.60;99.90;;;;;;4231215;28;20128;-85
2022/05/11 04:46:13;;;;;;;9.32;3.42;;;13.60;99.90;;;;;;4231247;28;20055;-85
2022/05/11 04:48:17;;;;;;;9.85;3.67;;;13.60;99.90;;;;;;4248158;27;20084;-85
2022/05/11 04:50:18;;;;;;;6.57;3.33;;;13.60;99.90;;;;;;4249959;27;20047;-85
2022/05/11 04:52:20;;;;;;;10.13;3.30;;;13.60;99.90;;;;;;4249752;27;20055;-86
2022/05/11 04:54:22;;;;;;;11.50;3.55;;;13.60;99.90;;;;;;4231346;28;20490;-85
2022/05/11 04:56:22;;;;;;;10.93;3.60;;;13.60;99.90;;;;;;4231177;28;20395;-85
2022/05/11 04:58:24;;;;;;;13.15;3.95;;;13.60;99.90;;;;;;4214014;28;20044;-85
2022/05/11 05:00:25;;;;;;;10.25;4.03;;;13.30;99.90;;;;;;4230511;28;20035;-85
2022/05/11 05:02:30;;;;;;;13.15;3.45;;;13.70;99.90;;;;;;4249089;27;20043;-85
2022/05/11 05:04:32;;;;;;;11.15;3.67;;;13.00;99.90;;;;;;4249591;27;20051;-85
2022/05/11 05:06:34;;;;;;;7.15;3.58;;;13.70;99.90;;;;;;4248594;27;20147;-85
2022/05/11 05:08:34;;;;;;;8.60;3.30;;;13.70;99.90;;;;;;4226312;28;20078;-85
2022/05/11 05:10:35;;;;;;;10.25;4.03;;;13.70;99.90;;;;;;4236647;28;20495;-84
2022/05/11 05:12:36;;;;;;;7.70;3.40;;;13.40;99.90;;;;;;4248827;28;20031;-85
2022/05/11 05:14:38;;;;;;;12.30;3.70;;;13.70;99.90;;;;;;4248688;28;20031;-85
2022/05/11 05:16:39;;;;;;;8.70;3.08;;;13.70;99.90;;;;;;4249057;28;20069;-84
2022/05/11 05:18:40;;;;;;;8.07;3.53;;;13.70;99.90;;;;;;4230838;28;20044;-85
2022/05/11 05:20:41;;;;;;;5.25;3.15;;;13.20;99.90;;;;;;4230089;28;20112;-84
2022/05/11 05:22:41;;;;;;;10.73;3.15;;;13.70;99.90;;;;;;4231242;28;20040;-85
2022/05/11 05:24:43;;;;;;;13.60;4.00;;;13.80;99.90;;;;;;4223987;28;20086;-85
2022/05/11 05:26:45;;;;;;;12.70;4.47;;;13.80;99.90;;;;;;4243090;28;20047;-86
2022/05/11 05:31:10;;;;;;;;;;;13.80;99.90;;;;;;4213704;28;20048;-85
2022/05/11 05:33:11;;;;;;;10.38;2.78;;;13.80;99.90;;;;;;4231771;28;20010;-85
2022/05/11 05:35:16;;;;;;;10.18;3.47;;;13.80;99.90;;;;;;4230495;28;20043;-85
2022/05/11 05:37:18;;;;;;;8.05;3.83;;;13.80;99.90;;;;;;4232029;28;20068;-85
2022/05/11 05:39:19;;;;;;;13.10;3.30;;;13.80;99.90;;;;;;4233428;28;20134;-85
2022/05/11 05:41:20;;;;;;;11.15;4.22;;;13.90;99.90;;;;;;4197373;28;20053;-85
2022/05/11 05:43:23;;;;;;;9.20;3.15;;;13.90;99.90;;;;;;4216408;28;20048;-84
2022/05/11 05:45:25;;;;;;;9.00;2.92;;;13.90;99.90;;;;;;4230981;28;20035;-85
2022/05/11 05:47:25;;;;;;;7.30;2.83;;;13.90;99.90;;;;;;4214400;28;20044;-86
2022/05/11 05:49:28;;;;;;;7.40;3.70;;;13.90;99.90;;;;;;4200754;28;20475;-85
2022/05/11 05:51:29;;;;;;;7.43;3.03;;;14.00;99.90;;;;;;4249272;28;20039;-85
2022/05/11 05:53:32;;;;;;;10.07;3.33;;;14.00;99.90;;;;;;4213644;28;20409;-85
2022/05/11 05:55:33;;;;;;;7.78;3.35;;;14.00;99.90;;;;;;4248719;28;20093;-85
2022/05/11 05:57:38;;;;;;;11.45;3.25;;;14.00;99.90;;;;;;4248984;28;20039;-85
2022/05/11 05:59:39;;;;;;;10.05;3.38;;;14.10;99.90;;;;;;4248623;28;20046;-85
2022/05/11 06:01:40;;;;;;;8.65;4.25;;;14.10;99.90;;;;;;4230489;28;20123;-85
2022/05/11 06:03:41;;;;;;;15.45;3.38;;;14.10;99.90;;;;;;4247667;28;20383;-85
2022/05/11 06:05:42;;;;;;;8.10;2.90;;;14.20;99.90;;;;;;4230186;28;20067;-85
2022/05/11 06:07:42;;;;;;;10.93;2.97;;;13.90;99.90;;;;;;4247454;28;20103;-86
2022/05/11 06:09:44;;;;;;;15.73;3.58;;;14.20;99.90;;;;;;4249663;28;20039;-85
2022/05/11 06:11:44;;;;;;;13.25;4.18;;;14.30;99.90;;;;;;4214782;28;20127;-85
2022/05/11 06:13:45;;;;;;;10.30;3.00;;;14.30;99.90;;;;;;4230866;28;20050;-86
2022/05/11 06:15:46;;;;;;;11.05;3.40;;;14.30;99.90;;;;;;4213243;28;20048;-85
2022/05/11 06:17:47;;;;;;;14.35;3.22;;;14.30;99.90;;;;;;4231359;28;20039;-86
2022/05/11 06:19:49;;;;;;;11.23;3.90;;;14.40;99.90;;;;;;4213058;28;20056;-85
2022/05/11 06:21:50;;;;;;;13.40;3.70;;;14.40;99.90;;;;;;4234345;27;20048;-86
2022/05/11 06:23:51;;;;;;;8.18;2.75;;;14.50;99.90;;;;;;4232704;28;20078;-85
2022/05/11 06:25:53;;;;;;;10.93;3.28;;;14.50;99.90;;;;;;4234460;28;20097;-86
2022/05/11 06:27:54;;;;;;;13.13;3.53;;;14.60;99.90;;;;;;4245643;27;20035;-85
2022/05/11 06:29:58;;;;;;;11.80;3.63;;;14.60;99.90;;;;;;4251870;27;20040;-85
2022/05/11 06:31:59;;;;;;;10.77;3.50;;;14.00;99.90;;;;;;4217422;28;20496;-86
2022/05/11 06:34:00;;;;;;;11.20;3.60;;;14.70;99.90;;;;;;4226186;28;20054;-85
2022/05/11 06:36:06;;;;;;;8.52;3.15;;;14.80;99.90;;;;;;4233605;28;20094;-83
2022/05/11 06:38:08;;;;;;;12.90;3.20;;;14.80;99.90;;;;;;4232384;28;20110;-85
2022/05/11 06:40:11;;;;;;;10.15;3.00;;;14.90;99.90;;;;;;4215583;28;20037;-85
2022/05/11 06:42:13;;;;;;;11.05;3.00;;;15.00;99.90;;;;;;4216306;28;20494;-85
2022/05/11 06:44:15;;;;;;;7.50;3.38;;;15.30;99.90;;;;;;4216107;28;20056;-85
2022/05/11 06:46:26;;;;;;;13.15;3.50;;;15.10;99.90;;;;;;4234940;27;20036;-87
2022/05/11 06:48:27;;;;;;;14.23;3.63;;;15.10;99.90;;;;;;4247294;27;20042;-87
2022/05/11 06:50:28;;;;;;;11.35;4.10;;;15.10;99.90;;;;;;4251049;27;20067;-87
2022/05/11 06:52:29;;;;;;;14.95;3.05;;;15.10;99.90;;;;;;4223788;28;20043;-86
2022/05/11 06:59:20;;;;;;;10.90;3.72;;;15.10;99.90;;;;;;4251598;27;20480;-86
2022/05/11 07:01:21;;;;;;;7.75;3.25;;;15.10;99.90;;;;;;4232961;28;20079;-87
2022/05/11 07:03:22;;;;;;;10.35;4.47;;;15.10;99.90;;;;;;4246138;27;20047;-87
2022/05/11 07:05:23;;;;;;;11.43;3.25;;;15.10;99.90;;;;;;4221488;28;20385;-87
2022/05/11 07:07:24;;;;;;;11.75;4.10;;;15.10;99.90;;;;;;4215586;28;20055;-87
2022/05/11 07:09:28;;;;;;;16.83;3.20;;;15.20;99.90;;;;;;4213721;28;20046;-87
2022/05/11 07:12:32;;;;;;;13.88;3.88;;;15.20;99.90;;;;;;4209775;28;20044;-86
2022/05/11 07:13:58;;;;;;;11.95;2.88;;;15.20;99.90;;;;;;4211249;28;20148;-89
2022/05/11 07:16:02;;;;;;;10.95;3.42;;;15.30;99.90;;;;;;4250947;27;20510;-90
2022/05/11 07:18:03;;;;;;;11.30;3.67;;;15.40;99.90;;;;;;4216109;28;20575;-88
2022/05/11 07:20:13;;;;;;;11.02;3.65;;;15.40;99.90;;;;;;4218687;28;20048;-91
2022/05/11 07:22:15;;;;;;;12.70;3.60;;;15.50;99.90;;;;;;4218479;28;20487;-92
2022/05/11 07:24:16;;;;;;;11.38;3.28;;;15.50;99.90;;;;;;4252383;27;20085;-92
2022/05/11 07:26:17;;;;;;;9.93;3.28;;;15.50;99.90;;;;;;4217395;28;20557;-92
2022/05/11 07:28:17;;;;;;;10.75;3.58;;;15.50;99.90;;;;;;4217704;28;20040;-90
2022/05/11 07:30:22;;;;;;;9.57;2.85;;;15.40;99.90;;;;;;4216646;28;20508;-92
2022/05/11 07:32:25;;;;;;;11.88;3.40;;;15.60;99.90;;;;;;4249426;27;20039;-91
2022/05/11 07:34:26;;;;;;;12.02;3.17;;;15.70;99.90;;;;;;4217028;28;20194;-92
2022/05/11 07:36:29;;;;;;;12.13;3.88;;;15.80;99.90;;;;;;4233672;28;20077;-93
2022/05/11 07:38:37;;;;;;;10.13;3.95;;;15.90;99.90;;;;;;4250246;27;20128;-92
2022/05/11 07:40:39;;;;;;;12.05;3.60;;;16.00;99.90;;;;;;4251776;27;20438;-93
2022/05/11 07:42:44;;;;;;;11.63;3.70;;;16.10;99.90;;;;;;4251908;27;20400;-93
2022/05/11 07:44:44;;;;;;;9.75;2.97;;;16.20;99.90;;;;;;4216760;28;20535;-89
2022/05/11 07:46:46;;;;;;;9.88;3.65;;;16.30;99.90;;;;;;4249819;27;20046;-87
2022/05/11 07:48:47;;;;;;;13.23;3.40;;;;;;;;;;4214899;28;20077;-88
2022/05/11 07:50:48;;;;;;;12.18;4.00;;;16.70;99.20;;;;;;4231562;28;20091;-88
2022/05/11 07:52:49;;;;;;;10.55;3.65;;;16.90;99.30;;;;;;4219121;28;20487;-87
2022/05/11 07:54:50;;;;;;;12.40;2.92;;;;;;;;;;4254013;27;20050;-88
2022/05/11 08:01:31;;;;;;;9.23;3.05;;;;;;;;;;4231298;28;20052;-86
2022/05/11 08:03:32;;;;;;;11.45;2.75;;;;;;;;;;4249263;27;20433;-86
2022/05/11 08:05:33;;;;;;;8.00;2.13;;;17.00;97.70;;;;;;4231124;28;20051;-88
2022/05/11 08:07:43;;;;;;;9.43;3.42;;;17.10;97.70;;;;;;4249367;27;20357;-87
2022/05/11 08:09:44;;;;;;;12.75;2.92;;;16.90;97.30;;;;;;4250022;27;20047;-87
2022/05/11 08:11:47;;;;;;;10.52;3.40;;;17.10;97.20;;;;;;4247434;27;20125;-87
2022/05/11 08:13:48;;;;;;;11.70;2.78;;;17.00;96.40;;;;;;4230630;28;20039;-86
2022/05/11 08:15:50;;;;;;;10.95;2.13;;;17.00;96.70;;;;;;4214708;28;20044;-87
2022/05/11 08:17:52;;;;;;;13.02;2.35;;;17.00;96.40;;;;;;4231365;28;20052;-87
2022/05/11 08:19:53;;;;;;;7.80;2.40;;;17.00;96.70;;;;;;4247549;27;20268;-87
2022/05/11 08:21:55;;;;;;;13.73;2.58;;;17.00;96.30;;;;;;4215361;28;20052;-88
2022/05/11 08:23:56;;;;;;;12.85;3.30;;;;;;;;;;4248462;27;20050;-86
2022/05/11 08:25:57;;;;;;;12.90;3.53;;;17.20;96.40;;;;;;4230688;28;20044;-86
2022/05/11 08:27:59;;;;;;;9.50;2.30;;;17.40;96.00;;;;;;4248331;27;20035;-88
2022/05/11 08:34:40;;;;;;;10.48;3.08;;;17.70;94.80;;;;;;4211605;28;20052;-88
2022/05/11 08:36:41;;;;;;;13.32;2.85;;;17.70;94.90;;;;;;4229770;28;20079;-88
2022/05/11 08:38:45;;;;;;;17.35;2.55;;;17.60;94.80;;;;;;4213023;28;20044;-88
2022/05/11 08:40:48;;;;;;;8.57;3.28;;;17.50;94.50;;;;;;4213408;28;20050;-88
2022/05/11 08:42:49;;;;;;;13.98;2.50;;;17.50;94.90;;;;;;4213236;28;20047;-88
2022/05/11 08:44:50;;;;;;;10.18;2.60;;;17.50;94.90;;;;;;4231241;28;20085;-87
2022/05/11 08:47:16;;;;;;;9.25;2.35;;;17.60;94.60;;;;;;4231347;28;20123;-88
2022/05/11 08:49:25;;;;;;;6.28;2.00;;;17.70;94.40;;;;;;4213076;28;20131;-88
2022/05/11 08:52:04;;;;;;;8.30;2.25;;;17.90;94.50;;;;;;4232451;28;20082;-88
2022/05/11 08:54:15;;;;;;;11.18;2.47;;;18.10;94.10;;;;;;4148053;28;20129;-89
2022/05/11 08:56:17;;;;;;;11.93;2.50;;;;;;;;;;4215167;28;20051;-88
2022/05/11 08:58:39;;;;;;;14.35;2.25;;;18.10;94.10;;;;;;4232690;28;20376;-88
2022/05/11 09:00:43;;;;;;;11.13;2.03;;;18.30;93.60;;;;;;4214249;28;20534;-88
2022/05/11 09:02:43;;;;;;;8.20;3.13;;;18.20;93.50;;;;;;4213116;28;20093;-88
2022/05/11 09:04:47;;;;;;;7.00;1.95;;;18.20;93.10;;;;;;4229956;28;20035;-87
2022/05/11 09:06:48;;;;;;;10.95;2.63;;;18.20;93.10;;;;;;4231382;28;20058;-88
2022/05/11 09:08:49;;;;;;;7.13;2.17;;;18.10;92.70;;;;;;4231716;28;20169;-88
2022/05/11 09:10:50;;;;;;;11.35;2.50;;;18.10;92.60;;;;;;4234103;28;20500;-89
2022/05/11 09:13:00;;;;;;;6.85;1.80;;;17.90;92.40;;;;;;4200626;28;20076;-89
2022/05/11 09:15:03;;;;;;;10.02;2.40;;;17.90;92.00;;;;;;4214697;28;20404;-88
2022/05/11 09:17:19;;;;;;;15.20;2.70;;;17.90;92.10;;;;;;4231908;28;20123;-89
2022/05/11 09:19:28;;;;;;;6.55;1.90;;;17.80;92.10;;;;;;4213226;28;20060;-88
2022/05/11 09:21:32;;;;;;;7.45;2.40;;;17.90;92.20;;;;;;4229718;28;20497;-88
2022/05/11 09:23:40;;;;;;;11.70;3.05;;;18.10;92.10;;;;;;4229562;28;20050;-89
2022/05/11 09:26:14;;;;;;;10.55;2.20;;;18.20;91.30;;;;;;4230640;28;20048;-89
2022/05/11 09:28:20;;;;;;;9.13;2.33;;;18.40;89.80;;;;;;4201076;28;20105;-89
2022/05/11 09:30:30;;;;;;;9.23;2.00;;;;;;;;;;4212432;28;20135;-89
2022/05/11 09:32:37;;;;;;;12.27;2.50;;;;;;;;;;4213147;28;20563;-89
2022/05/11 09:34:38;;;;;;;10.13;1.80;;;;;;;;;;4231483;28;20051;-88
2022/05/11 09:37:15;;;;;;;11.38;2.78;;;18.60;90.70;;;;;;4231817;28;20054;-89
2022/05/11 09:39:17;;;;;;;10.27;2.00;;;19.40;87.90;;;;;;4223685;28;20066;-88
2022/05/11 09:41:18;;;;;;;14.73;1.73;;;19.60;87.90;;;;;;4216793;28;20058;-87
2022/05/11 09:43:37;;;;;;;9.68;2.22;;;19.60;87.10;;;;;;4201755;28;20084;-87
2022/05/11 09:45:40;;;;;;;12.15;2.35;;;19.80;84.30;;;;;;4235002;28;20381;-88
2022/05/11 09:48:02;;;;;;;11.25;2.83;;;19.70;83.90;;;;;;4218601;28;20551;-87
2022/05/11 09:50:18;;;;;;;8.25;2.13;;;19.60;85.10;;;;;;4235062;28;20086;-88
2022/05/11 09:52:34;;;;;;;8.27;1.65;;;19.50;84.10;;;;;;4235307;28;20055;-88
2022/05/11 09:54:48;;;;;;;8.18;1.35;;;19.30;82.90;;;;;;4237347;28;20083;-88
2022/05/11 09:56:49;;;;;;;6.80;1.75;;;19.10;84.60;;;;;;4240899;28;20122;-89
2022/05/11 09:58:50;;;;;;;13.80;2.58;;;18.90;85.60;;;;;;4225851;28;20055;-88
2022/05/11 10:00:51;;;;;;;7.97;1.73;;;18.80;85.50;;;;;;4229666;28;20044;-89
2022/05/11 10:02:56;;;;;;;9.65;3.20;;;18.80;86.10;;;;;;4246160;28;20127;-88
2022/05/11 10:05:17;;;;;;;11.27;2.67;;;18.70;86.00;;;;;;4246128;28;20123;-89
2022/05/11 10:07:19;;;;;;;10.45;2.35;;;18.70;86.20;;;;;;4247284;28;20035;-88
2022/05/11 10:09:32;;;;;;;9.00;2.60;;;18.70;87.10;;;;;;4246940;28;20056;-88
2022/05/11 10:11:45;;;;;;;11.13;1.58;;;18.80;86.90;;;;;;4228095;28;20528;-88
2022/05/11 10:14:00;;;;;;;7.47;1.80;;;18.90;87.20;;;;;;4241883;28;20071;-89
2022/05/11 10:23:30;;;;;;;12.57;1.60;;;;;;;;;;4224392;28;20060;-89
2022/05/11 10:25:37;;;;;;;12.00;1.98;;;19.70;83.00;;;;;;4242089;28;20140;-88
2022/05/11 10:28:05;;;;;;;8.27;1.80;;;20.10;79.60;;;;;;4239820;28;20051;-88
2022/05/11 10:30:25;;;;;;;10.93;3.30;;;20.10;79.70;;;;;;4221067;28;20066;-89
2022/05/11 10:32:40;;;;;;;10.57;1.40;;;20.00;79.10;;;;;;4241439;28;20043;-89
2022/05/11 10:35:02;;;;;;;7.18;2.08;;;19.80;80.00;;;;;;4242402;28;20055;-88
2022/05/11 10:37:15;;;;;;;8.20;2.08;;;19.50;78.10;;;;;;4243632;28;20047;-88
2022/05/11 10:39:27;;;;;;;10.80;2.17;;;19.60;80.70;;;;;;4227746;28;20051;-89
2022/05/11 10:41:34;;;;;;;11.18;1.75;;;;;;;;;;4245379;28;20051;-89
2022/05/11 10:43:54;;;;;;;11.88;2.25;;;;;;;;;;4201296;28;20049;-88
2022/05/11 10:46:00;;;;;;;6.00;1.45;;;;;;;;;;4218341;28;20040;-88
2022/05/11 10:48:08;;;;;;;9.45;2.08;;;;;;;;;;4235875;28;20489;-88
2022/05/11 10:50:20;;;;;;;6.65;1.50;;;;;;;;;;4216288;28;20048;-89
2022/05/11 10:52:39;;;;;;;13.13;1.60;;;;;;;;;;4215704;28;20069;-89
2022/05/11 10:54:54;;;;;;;14.50;1.92;;;;;;;;;;4233011;28;20071;-88
2022/05/11 10:56:55;;;;;;;6.55;1.48;;;;;;;;;;4198258;28;20048;-88
2022/05/11 10:59:11;;;;;;;6.55;1.70;;;;;;;;;;4233247;28;20039;-89
2022/05/11 11:01:18;;;;;;;7.82;1.40;;;;;;;;;;4233148;28;20054;-89
2022/05/11 11:03:23;;;;;;;7.32;1.38;;;;;;;;;;4214537;28;20044;-89
2022/05/11 11:05:30;;;;;;;8.13;1.48;;;;;;;;;;4233474;28;20043;-88
2022/05/11 11:07:40;;;;;;;5.18;1.40;;;;;;;;;;4215097;28;20056;-88
2022/05/11 11:09:48;;;;;;;6.18;1.55;;;;;;;;;;4233249;28;20164;-90
2022/05/11 11:11:58;;;;;;;11.10;2.83;;;;;;;;;;4233186;28;20047;-88
2022/05/11 11:14:01;;;;;;;7.65;1.30;;;;;;;;;;4214781;28;20126;-89
2022/05/11 11:16:05;;;;;;;10.40;1.63;;;;;;;;;;4214441;28;20040;-89
2022/05/11 11:18:06;;;;;;;9.23;1.70;;;;;;;;;;4214906;28;20115;-89
2022/05/11 11:20:08;;;;;;;8.68;1.92;;;;;;;;;;4232269;28;20124;-89